createdAt,value
2022-12-08T00:00:52.671Z,0.03
2022-12-08T00:03:19.638Z,-0.03
2022-12-08T00:06:06.928Z,-0.02
2022-12-08T00:08:52.616Z,-0.02
2022-12-08T00:11:20.038Z,-0.06
2022-12-08T00:13:46.997Z,-0.07
2022-12-08T00:16:13.798Z,0.01
2022-12-08T00:18:40.577Z,-0.12
2022-12-08T00:21:07.353Z,-0.03
2022-12-08T00:23:34.050Z,-0.05
2022-12-08T00:26:05.126Z,0.01
2022-12-08T00:28:33.323Z,0.02
2022-12-08T00:31:00.707Z,-0.06
2022-12-08T00:33:30.564Z,-0.07
2022-12-08T00:35:57.297Z,0.08
2022-12-08T00:38:23.999Z,0.05
2022-12-08T00:40:50.694Z,0.06
2022-12-08T00:43:17.420Z,0.06
2022-12-08T00:45:44.223Z,0.04
2022-12-08T00:48:11.007Z,0.05
2022-12-08T00:50:37.746Z,0.09
2022-12-08T00:53:05.029Z,0.12
2022-12-08T00:55:31.753Z,0.13
2022-12-08T00:57:58.496Z,0.13
2022-12-08T01:00:25.195Z,0.22
2022-12-08T01:02:51.960Z,0.27
2022-12-08T01:05:18.838Z,0.32
2022-12-08T01:07:45.734Z,0.35
2022-12-08T01:10:12.471Z,0.33
2022-12-08T01:12:39.216Z,0.37
2022-12-08T01:15:06.280Z,0.39
2022-12-08T01:17:33.080Z,0.37
2022-12-08T01:19:59.867Z,0.41
2022-12-08T01:22:26.650Z,0.42
2022-12-08T01:24:53.378Z,0.46
2022-12-08T01:27:20.154Z,0.48
2022-12-08T01:29:46.837Z,0.51
2022-12-08T01:32:13.540Z,0.51
2022-12-08T01:34:40.299Z,0.51
2022-12-08T01:37:07.003Z,0.55
2022-12-08T01:39:34.850Z,0.53
2022-12-08T01:42:01.566Z,0.51
2022-12-08T01:44:28.228Z,0.49
2022-12-08T01:46:55.456Z,0.46
2022-12-08T01:49:24.655Z,0.42
2022-12-08T01:51:55.051Z,0.46
2022-12-08T01:54:26.480Z,0.37
2022-12-08T01:57:01.121Z,0.42
2022-12-08T01:59:30.436Z,0.43
2022-12-08T02:01:58.021Z,0.43
2022-12-08T02:04:24.747Z,0.37
2022-12-08T02:06:52.759Z,0.42
2022-12-08T02:09:20.289Z,0.45
2022-12-08T02:11:47.684Z,0.46
2022-12-08T02:14:15.019Z,0.45
2022-12-08T02:17:02.309Z,0.51
2022-12-08T02:20:08.423Z,0.53
2022-12-08T02:23:09.607Z,0.54
2022-12-08T02:26:10.371Z,0.54
2022-12-08T02:29:12.526Z,0.56
2022-12-08T02:32:05.283Z,0.57
2022-12-08T02:34:39.824Z,0.51
2022-12-08T02:37:23.620Z,0.49
2022-12-08T02:40:05.832Z,0.49
2022-12-08T02:42:38.847Z,0.47
2022-12-08T02:45:18.490Z,0.42
2022-12-08T02:47:45.388Z,0.38
2022-12-08T02:50:12.384Z,0.44
2022-12-08T02:52:44.538Z,0.45
2022-12-08T02:55:28.129Z,0.35
2022-12-08T02:58:21.066Z,0.28
2022-12-08T03:01:14.085Z,0.22
2022-12-08T03:04:00.091Z,0.22
2022-12-08T03:06:53.247Z,0.29
2022-12-08T03:09:44.554Z,0.26
2022-12-08T03:12:39.243Z,0.27
2022-12-08T03:15:12.830Z,0.25
2022-12-08T03:17:45.568Z,0.24
2022-12-08T03:20:16.675Z,0.25
2022-12-08T03:22:45.346Z,0.22
2022-12-08T03:25:15.264Z,0.20
2022-12-08T03:27:42.199Z,0.27
2022-12-08T03:30:09.735Z,0.30
2022-12-08T03:32:55.337Z,0.29
2022-12-08T03:35:26.501Z,0.29
2022-12-08T03:38:05.907Z,0.39
2022-12-08T03:40:32.791Z,0.41
2022-12-08T03:42:59.494Z,0.25
2022-12-08T03:45:26.342Z,0.38
2022-12-08T03:47:53.098Z,0.38
2022-12-08T03:50:19.775Z,0.33
2022-12-08T03:52:46.532Z,0.27
2022-12-08T03:55:13.348Z,0.22
2022-12-08T03:57:40.267Z,0.24
2022-12-08T04:00:09.598Z,0.27
2022-12-08T04:02:36.397Z,0.27
2022-12-08T04:05:03.222Z,0.13
2022-12-08T04:07:30.323Z,0.27
2022-12-08T04:09:57.079Z,0.33
2022-12-08T04:12:23.750Z,0.33
2022-12-08T04:14:50.454Z,0.37
2022-12-08T04:17:17.191Z,0.33
2022-12-08T04:19:43.874Z,0.41
2022-12-08T04:22:10.687Z,0.44
2022-12-08T04:24:37.492Z,0.45
2022-12-08T04:27:04.302Z,0.39
2022-12-08T04:29:31.015Z,0.44
2022-12-08T04:31:57.936Z,0.35
2022-12-08T04:34:24.711Z,0.43
2022-12-08T04:36:51.518Z,0.41
2022-12-08T04:39:18.263Z,0.43
2022-12-08T04:41:44.923Z,0.33
2022-12-08T04:44:11.623Z,0.40
2022-12-08T04:46:43.175Z,0.38
2022-12-08T04:49:10.659Z,0.43
2022-12-08T04:51:37.366Z,0.43
2022-12-08T04:54:04.145Z,0.43
2022-12-08T04:56:30.919Z,0.40
2022-12-08T04:58:57.626Z,0.36
2022-12-08T05:01:24.374Z,0.40
2022-12-08T05:03:51.291Z,0.40
2022-12-08T05:06:18.047Z,0.37
2022-12-08T05:08:44.750Z,0.33
2022-12-08T05:11:13.130Z,0.32
2022-12-08T05:13:40.178Z,0.34
2022-12-08T05:16:13.063Z,0.36
2022-12-08T05:18:41.137Z,0.37
2022-12-08T05:21:08.471Z,0.43
2022-12-08T05:23:36.022Z,0.48
2022-12-08T05:26:02.748Z,0.48
2022-12-08T05:28:44.829Z,0.50
2022-12-08T05:31:16.332Z,0.48
2022-12-08T05:33:44.411Z,0.41
2022-12-08T05:36:15.823Z,0.48
2022-12-08T05:38:43.559Z,0.52
2022-12-08T05:41:14.464Z,0.52
2022-12-08T05:43:41.603Z,0.54
2022-12-08T05:46:09.143Z,0.62
2022-12-08T05:48:36.203Z,0.63
2022-12-08T05:51:03.946Z,0.62
2022-12-08T05:53:30.721Z,0.66
2022-12-08T05:55:57.590Z,0.60
2022-12-08T05:58:24.365Z,0.62
2022-12-08T06:00:51.426Z,0.59
2022-12-08T06:03:19.751Z,0.65
2022-12-08T06:05:47.064Z,0.68
2022-12-08T06:08:13.726Z,0.71
2022-12-08T06:10:42.403Z,0.72
2022-12-08T06:13:09.209Z,0.73
2022-12-08T06:15:37.084Z,0.74
2022-12-08T06:18:04.652Z,0.74
2022-12-08T06:20:31.473Z,0.72
2022-12-08T06:22:58.303Z,0.72
2022-12-08T06:25:25.178Z,0.64
2022-12-08T06:27:52.148Z,0.70
2022-12-08T06:30:18.951Z,0.67
2022-12-08T06:32:45.828Z,0.57
2022-12-08T06:35:12.517Z,0.65
2022-12-08T06:37:39.224Z,0.70
2022-12-08T06:40:06.981Z,0.71
2022-12-08T06:42:47.045Z,0.72
2022-12-08T06:45:18.298Z,0.74
2022-12-08T06:47:45.377Z,0.80
2022-12-08T06:50:13.465Z,0.79
2022-12-08T06:52:51.735Z,0.81
2022-12-08T06:55:50.949Z,0.83
2022-12-08T06:58:09.874Z,0.80
2022-12-08T07:00:36.575Z,0.77
2022-12-08T07:03:03.381Z,0.72
2022-12-08T07:05:30.136Z,0.81
2022-12-08T07:07:56.900Z,0.84
2022-12-08T07:10:23.669Z,0.84
2022-12-08T07:12:50.422Z,0.83
2022-12-08T07:15:17.232Z,0.87
2022-12-08T07:17:43.943Z,0.89
2022-12-08T07:20:10.953Z,0.85
2022-12-08T07:22:37.631Z,0.88
2022-12-08T07:25:04.644Z,0.83
2022-12-08T07:27:31.370Z,0.86
2022-12-08T07:29:58.096Z,0.92
2022-12-08T07:32:24.883Z,0.87
2022-12-08T07:34:51.844Z,0.82
2022-12-08T07:37:18.554Z,0.90
2022-12-08T07:39:45.339Z,0.93
2022-12-08T07:42:12.691Z,0.95
2022-12-08T07:44:40.614Z,0.97
2022-12-08T07:47:10.335Z,1.03
2022-12-08T07:49:37.677Z,1.07
2022-12-08T07:52:05.252Z,1.02
2022-12-08T07:54:32.252Z,1.09
2022-12-08T07:56:59.454Z,1.17
2022-12-08T07:59:26.725Z,1.13
2022-12-08T08:02:20.984Z,1.12
2022-12-08T08:04:40.935Z,1.07
2022-12-08T08:07:08.139Z,0.98
2022-12-08T08:09:34.976Z,1.06
2022-12-08T08:12:29.756Z,1.11
2022-12-08T08:14:49.379Z,1.12
2022-12-08T08:17:16.523Z,1.17
2022-12-08T08:19:43.591Z,1.16
2022-12-08T08:22:10.416Z,1.11
2022-12-08T08:24:43.130Z,1.15
2022-12-08T08:27:11.936Z,1.15
2022-12-08T08:29:39.293Z,1.26
2022-12-08T08:32:06.108Z,1.30
2022-12-08T08:34:33.229Z,1.30
2022-12-08T08:37:00.107Z,1.38
2022-12-08T08:39:27.769Z,1.36
2022-12-08T08:41:54.455Z,1.36
2022-12-08T08:44:21.155Z,1.37
2022-12-08T08:46:48.011Z,1.34
2022-12-08T08:49:14.747Z,1.23
2022-12-08T08:51:42.192Z,1.27
2022-12-08T08:54:08.916Z,1.32
2022-12-08T08:56:36.527Z,1.34
2022-12-08T08:59:04.404Z,1.36
2022-12-08T09:01:31.664Z,1.35
2022-12-08T09:03:58.992Z,1.30
2022-12-08T09:06:25.935Z,1.28
2022-12-08T09:08:52.792Z,1.26
2022-12-08T09:11:20.093Z,1.24
2022-12-08T09:13:50.647Z,1.25
2022-12-08T09:16:18.356Z,1.31
2022-12-08T09:18:45.296Z,1.27
2022-12-08T09:21:16.767Z,1.29
2022-12-08T09:23:47.036Z,1.29
2022-12-08T09:26:13.787Z,1.22
2022-12-08T09:28:46.866Z,1.34
2022-12-08T09:31:14.770Z,1.35
2022-12-08T09:33:42.162Z,1.44
2022-12-08T09:36:09.378Z,1.53
2022-12-08T09:38:37.305Z,1.52
2022-12-08T09:41:30.844Z,1.51
2022-12-08T09:44:26.820Z,1.47
2022-12-08T09:46:55.322Z,1.46
2022-12-08T09:49:41.009Z,1.47
2022-12-08T09:52:20.464Z,1.49
2022-12-08T09:54:47.292Z,1.54
2022-12-08T09:57:19.292Z,1.45
2022-12-08T09:59:52.759Z,1.57
2022-12-08T10:02:24.833Z,1.58
2022-12-08T10:04:54.234Z,1.77
2022-12-08T10:07:36.155Z,1.83
2022-12-08T10:10:40.361Z,1.94
2022-12-08T10:13:25.589Z,2.00
2022-12-08T10:16:26.551Z,2.13
2022-12-08T10:19:10.371Z,2.05
2022-12-08T10:21:39.135Z,2.02
2022-12-08T10:24:15.487Z,2.09
2022-12-08T10:26:42.378Z,2.01
2022-12-08T10:29:14.466Z,2.18
2022-12-08T10:31:41.648Z,2.17
2022-12-08T10:34:24.180Z,2.24
2022-12-08T10:36:58.638Z,2.37
2022-12-08T10:39:40.653Z,2.58
2022-12-08T10:42:22.070Z,2.76
2022-12-08T10:44:58.093Z,2.74
2022-12-08T10:47:28.056Z,2.53
2022-12-08T10:50:17.137Z,2.47
2022-12-08T10:52:43.883Z,2.31
2022-12-08T10:55:19.276Z,2.50
2022-12-08T10:57:46.028Z,2.57
2022-12-08T11:00:16.185Z,2.58
2022-12-08T11:03:02.621Z,2.55
2022-12-08T11:05:34.017Z,2.48
2022-12-08T11:08:01.754Z,2.53
2022-12-08T11:10:44.394Z,2.42
2022-12-08T11:13:24.351Z,2.42
2022-12-08T11:15:52.195Z,2.59
2022-12-08T11:18:31.321Z,2.64
2022-12-08T11:21:07.344Z,2.75
2022-12-08T11:23:37.224Z,2.73
2022-12-08T11:26:36.508Z,2.86
2022-12-08T11:29:03.321Z,2.82
2022-12-08T11:31:43.763Z,2.85
2022-12-08T11:34:37.240Z,2.78
2022-12-08T11:37:19.788Z,2.78
2022-12-08T11:39:50.212Z,2.94
2022-12-08T11:42:20.538Z,3.12
2022-12-08T11:45:03.130Z,3.22
2022-12-08T11:47:57.501Z,3.14
2022-12-08T11:50:50.714Z,3.18
2022-12-08T11:53:48.887Z,3.23
2022-12-08T11:56:20.600Z,3.18
2022-12-08T11:58:55.948Z,3.19
2022-12-08T12:01:24.932Z,3.30
2022-12-08T12:04:11.037Z,3.40
2022-12-08T12:06:56.159Z,3.41
2022-12-08T12:09:37.986Z,3.31
2022-12-08T12:12:44.600Z,3.36
2022-12-08T12:15:30.248Z,3.53
2022-12-08T12:18:16.453Z,3.70
2022-12-08T12:21:06.392Z,3.85
2022-12-08T12:23:57.324Z,4.15
2022-12-08T12:26:27.392Z,4.39
2022-12-08T12:29:06.220Z,4.41
2022-12-08T12:31:36.868Z,4.35
2022-12-08T12:34:14.703Z,4.15
2022-12-08T12:36:57.167Z,4.12
2022-12-08T12:39:29.543Z,3.98
2022-12-08T12:41:59.896Z,3.76
2022-12-08T12:44:29.624Z,3.63
2022-12-08T12:47:01.834Z,3.57
2022-12-08T12:49:40.845Z,3.53
2022-12-08T12:52:10.313Z,3.52
2022-12-08T12:54:42.588Z,3.39
2022-12-08T12:57:09.313Z,3.50
2022-12-08T12:59:51.642Z,3.39
2022-12-08T13:02:53.601Z,3.34
2022-12-08T13:05:25.125Z,3.24
2022-12-08T13:08:08.216Z,3.29
2022-12-08T13:10:38.802Z,3.30
2022-12-08T13:13:18.611Z,3.34
2022-12-08T13:16:09.986Z,3.34
2022-12-08T13:18:57.650Z,3.35
2022-12-08T13:21:32.143Z,3.28
2022-12-08T13:24:13.949Z,3.35
2022-12-08T13:26:46.174Z,3.34
2022-12-08T13:29:24.862Z,3.29
2022-12-08T13:31:55.637Z,3.34
2022-12-08T13:34:31.502Z,3.20
2022-12-08T13:37:04.170Z,3.19
2022-12-08T13:40:00.377Z,3.22
2022-12-08T13:42:27.362Z,3.21
2022-12-08T13:45:33.455Z,3.18
2022-12-08T13:48:51.237Z,3.18
2022-12-08T13:57:10.111Z,3.10
2022-12-08T13:59:44.299Z,3.10
2022-12-08T14:02:26.773Z,3.05
2022-12-08T14:05:17.492Z,2.98
2022-12-08T14:07:43.184Z,2.92
2022-12-08T14:10:28.421Z,2.98
2022-12-08T14:12:59.652Z,2.97
2022-12-08T14:15:29.214Z,2.97
2022-12-08T14:17:59.387Z,3.07
2022-12-08T14:20:51.904Z,3.09
2022-12-08T14:23:20.604Z,3.14
2022-12-08T14:25:48.261Z,3.18
2022-12-08T14:28:15.315Z,3.16
2022-12-08T14:30:42.342Z,3.18
2022-12-08T14:33:15.086Z,3.11
2022-12-08T14:35:41.862Z,3.08
2022-12-08T14:38:17.263Z,3.08
2022-12-08T14:40:49.251Z,3.07
2022-12-08T14:43:17.961Z,2.98
2022-12-08T14:45:44.682Z,2.96
2022-12-08T14:48:39.144Z,2.88
2022-12-08T14:51:06.030Z,2.84
2022-12-08T14:53:36.852Z,2.79
2022-12-08T14:56:27.849Z,2.76
2022-12-08T14:59:14.369Z,2.75
2022-12-08T15:01:43.103Z,2.71
2022-12-08T15:04:12.881Z,2.71
2022-12-08T15:06:53.913Z,2.59
2022-12-08T15:09:38.898Z,2.64
2022-12-08T15:12:14.862Z,2.62
2022-12-08T15:14:44.226Z,2.61
2022-12-08T15:17:35.372Z,2.54
2022-12-08T15:20:03.720Z,2.48
2022-12-08T15:22:31.506Z,2.43
2022-12-08T15:24:58.810Z,2.41
2022-12-08T15:27:25.821Z,2.41
2022-12-08T15:29:53.780Z,2.39
2022-12-08T15:32:23.106Z,2.39
2022-12-08T15:34:50.471Z,2.37
2022-12-08T15:37:26.402Z,2.33
2022-12-08T15:39:53.501Z,2.32
2022-12-08T15:42:20.509Z,2.21
2022-12-08T15:44:47.440Z,2.30
2022-12-08T15:47:20.018Z,2.34
2022-12-08T15:49:48.204Z,2.36
2022-12-08T15:52:20.643Z,2.39
2022-12-08T15:54:47.471Z,2.39
2022-12-08T15:57:59.147Z,2.33
2022-12-08T16:04:02.730Z,2.38
2022-12-08T16:07:12.491Z,2.40
2022-12-08T16:09:12.394Z,2.37
2022-12-08T16:12:08.386Z,2.43
2022-12-08T16:17:24.939Z,2.36
2022-12-08T16:19:51.918Z,2.44
2022-12-08T16:25:18.208Z,2.46
2022-12-08T16:28:12.357Z,2.47
2022-12-08T16:30:34.038Z,2.42
2022-12-08T16:33:04.756Z,2.45
2022-12-08T16:35:32.702Z,2.44
2022-12-08T16:38:00.056Z,2.47
2022-12-08T16:40:28.130Z,2.45
2022-12-08T16:42:57.598Z,2.47
2022-12-08T16:45:33.323Z,2.42
2022-12-08T16:48:02.106Z,2.29
2022-12-08T16:50:33.051Z,2.27
2022-12-08T16:53:04.218Z,2.24
2022-12-08T16:55:33.919Z,2.19
2022-12-08T16:58:04.116Z,2.17
2022-12-08T17:00:37.174Z,2.20
2022-12-08T17:03:08.570Z,2.14
2022-12-08T17:05:36.940Z,2.14
2022-12-08T17:08:06.667Z,2.11
2022-12-08T17:10:38.744Z,2.09
2022-12-08T17:13:06.838Z,2.09
2022-12-08T17:15:34.044Z,2.06
2022-12-08T17:18:03.460Z,2.17
2022-12-08T17:20:31.503Z,2.09
2022-12-08T17:22:59.701Z,2.09
2022-12-08T17:25:28.068Z,2.06
2022-12-08T17:27:56.935Z,2.06
2022-12-08T17:30:24.245Z,1.93
2022-12-08T17:32:53.566Z,1.86
2022-12-08T17:35:21.880Z,1.83
2022-12-08T17:37:49.147Z,1.78
2022-12-08T17:40:18.072Z,1.80
2022-12-08T17:42:47.712Z,1.82
2022-12-08T17:45:18.304Z,1.79
2022-12-08T17:47:46.548Z,1.78
2022-12-08T17:50:13.524Z,1.75
2022-12-08T17:52:40.296Z,1.37
2022-12-08T17:55:08.699Z,1.50
2022-12-08T17:57:36.794Z,1.52
2022-12-08T18:00:05.328Z,1.49
2022-12-08T18:02:38.736Z,1.31
2022-12-08T18:05:06.256Z,1.29
2022-12-08T18:07:32.958Z,1.19
2022-12-08T18:09:59.810Z,1.15
2022-12-08T18:12:26.583Z,1.01
2022-12-08T18:14:53.339Z,0.99
2022-12-08T18:17:20.687Z,0.95
2022-12-08T18:19:47.529Z,0.87
2022-12-08T18:22:15.961Z,0.81
2022-12-08T18:24:43.020Z,0.78
2022-12-08T18:27:09.827Z,0.71
2022-12-08T18:29:36.805Z,0.65
2022-12-08T18:32:03.708Z,0.62
2022-12-08T18:34:30.500Z,0.61
2022-12-08T18:36:57.303Z,0.56
2022-12-08T18:39:27.462Z,0.51
2022-12-08T18:41:58.627Z,0.45
2022-12-08T18:44:25.603Z,0.42
2022-12-08T18:46:52.364Z,0.32
2022-12-08T18:49:20.021Z,0.27
2022-12-08T18:51:47.682Z,0.18
2022-12-08T18:54:14.426Z,0.12
2022-12-08T18:56:41.261Z,0.07
2022-12-08T18:59:10.999Z,0.04
2022-12-08T19:01:39.369Z,-0.14
2022-12-08T19:06:56.462Z,-0.19
2022-12-08T19:09:25.425Z,-0.25
2022-12-08T19:11:52.680Z,-0.27
2022-12-08T19:14:25.788Z,-0.17
2022-12-08T19:16:55.043Z,-0.32
2022-12-08T19:19:22.011Z,-0.28
2022-12-08T19:21:49.396Z,-0.37
2022-12-08T19:24:16.800Z,-0.34
2022-12-08T19:26:43.448Z,-0.31
2022-12-08T19:29:10.722Z,-0.30
2022-12-08T19:31:37.531Z,-0.32
2022-12-08T19:34:05.704Z,-0.34
2022-12-08T19:36:35.544Z,-0.41
2022-12-08T19:39:23.106Z,-0.41
2022-12-08T19:42:09.371Z,-0.45
2022-12-08T19:44:54.386Z,-0.47
2022-12-08T19:47:23.954Z,-0.54
2022-12-08T19:49:51.412Z,-0.58
2022-12-08T19:52:18.283Z,-0.69
2022-12-08T19:54:45.840Z,-0.74
2022-12-08T19:57:12.879Z,-0.79
2022-12-08T19:59:40.115Z,-0.86
2022-12-08T20:02:07.499Z,-0.89
2022-12-08T20:04:34.425Z,-1.02
2022-12-08T20:07:01.166Z,-1.06
2022-12-08T20:09:27.970Z,-0.96
2022-12-08T20:11:55.020Z,-1.00
2022-12-08T20:14:23.511Z,-1.16
2022-12-08T20:16:50.699Z,-1.09
2022-12-08T20:19:17.667Z,-1.08
2022-12-08T20:21:44.444Z,-1.12
2022-12-08T20:24:11.217Z,-1.13
2022-12-08T20:26:38.024Z,-1.12
2022-12-08T20:29:04.703Z,-0.79
2022-12-08T20:31:32.745Z,-0.70
2022-12-08T20:34:00.254Z,-0.68
2022-12-08T20:36:27.452Z,-0.75
2022-12-08T20:38:54.547Z,-0.67
2022-12-08T20:41:23.501Z,-0.70
2022-12-08T20:43:51.289Z,-0.64
2022-12-08T20:46:19.215Z,-0.65
2022-12-08T20:48:46.394Z,-0.57
2022-12-08T20:51:18.070Z,-0.54
2022-12-08T20:53:45.313Z,-0.49
2022-12-08T20:56:15.939Z,-0.48
2022-12-08T20:58:42.975Z,-0.41
2022-12-08T21:01:12.037Z,-0.46
2022-12-08T21:03:39.331Z,-0.51
2022-12-08T21:06:07.177Z,-0.58
2022-12-08T21:08:34.884Z,-0.61
2022-12-08T21:11:02.013Z,-0.53
2022-12-08T21:13:29.474Z,-0.50
2022-12-08T21:15:56.729Z,-0.47
2022-12-08T21:18:32.136Z,-0.47
2022-12-08T21:21:07.170Z,-0.52
2022-12-08T21:23:34.720Z,-0.57
2022-12-08T21:26:01.674Z,-0.57
2022-12-08T21:28:28.904Z,-0.60
2022-12-08T21:30:55.968Z,-0.61
2022-12-08T21:33:22.855Z,-0.57
2022-12-08T21:35:49.860Z,-0.52
2022-12-08T21:38:16.812Z,-0.47
2022-12-08T21:40:43.588Z,-0.48
2022-12-08T21:43:10.441Z,-0.50
2022-12-08T21:45:37.203Z,-0.64
2022-12-08T21:48:10.932Z,-0.41
2022-12-08T21:50:38.972Z,-0.46
2022-12-08T21:53:05.641Z,-0.43
2022-12-08T21:55:32.567Z,-0.47
2022-12-08T21:58:00.962Z,-0.47
2022-12-08T22:00:28.150Z,-0.56
2022-12-08T22:02:55.229Z,-0.49
2022-12-08T22:05:22.124Z,-0.48
2022-12-08T22:07:48.925Z,-0.48
2022-12-08T22:10:16.091Z,-0.42
2022-12-08T22:12:42.980Z,-0.42
2022-12-08T22:15:11.394Z,-0.41
2022-12-08T22:17:43.424Z,-0.40
2022-12-08T22:20:13.441Z,-0.43
2022-12-08T22:22:41.348Z,-0.42
2022-12-08T22:25:11.930Z,-0.43
2022-12-08T22:27:40.115Z,-0.39
2022-12-08T22:30:08.312Z,-0.51
2022-12-08T22:32:35.690Z,-0.36
2022-12-08T22:35:02.379Z,-0.47
2022-12-08T22:37:29.246Z,-0.52
2022-12-08T22:39:55.928Z,-0.58
2022-12-08T22:42:22.650Z,-0.50
2022-12-08T22:44:49.463Z,-0.47
2022-12-08T22:47:16.153Z,-0.44
2022-12-08T22:49:42.862Z,-0.42
2022-12-08T22:52:09.826Z,-0.42
2022-12-08T22:54:36.844Z,-0.46
2022-12-08T22:57:03.797Z,-0.38
2022-12-08T22:59:30.639Z,-0.48
2022-12-08T23:01:57.415Z,-0.37
2022-12-08T23:04:24.179Z,-0.35
2022-12-08T23:06:51.207Z,-0.38
2022-12-08T23:09:18.042Z,-0.44
2022-12-08T23:11:44.832Z,-0.52
2022-12-08T23:14:11.537Z,-0.62
2022-12-08T23:16:38.599Z,-0.62
2022-12-08T23:19:05.895Z,-0.68
2022-12-08T23:21:32.986Z,-0.68
2022-12-08T23:24:01.270Z,-0.67
2022-12-08T23:26:29.794Z,-0.59
2022-12-08T23:28:57.322Z,-0.60
2022-12-08T23:31:24.853Z,-0.60
2022-12-08T23:33:52.448Z,-0.66
2022-12-08T23:36:20.935Z,-0.65
2022-12-08T23:38:48.332Z,-0.61
2022-12-08T23:41:16.199Z,-0.60
2022-12-08T23:43:45.616Z,-0.62
2022-12-08T23:46:13.155Z,-0.58
2022-12-08T23:48:40.541Z,-0.59
2022-12-08T23:51:07.416Z,-0.57
2022-12-08T23:53:34.886Z,-0.55
2022-12-08T23:56:10.623Z,-0.58
2022-12-08T23:58:38.044Z,-0.58
